Memorial Park, Texas
Current Conditions -  °F | °C
As of 11:35 PM on Wednesday 22 Oct 2014 (Local Time) from KMCJ Reporting Station
Clear Clear  
Wind Chill: 70°   Ceiling: Unl
Heat Index: 70°   Visibility: 10mi
Dew Point: 59°   Wind: 0mph
Humidity: 68%   Direction: NA
Pressure: 30.06"   Gusts: NA
Location:  29.7707°N, 95.5161°W
Report Text: KMCJ 230435Z AUTO 00000KT 10SM CLR 21/15 A3006 RMK AO1
Loading
Personal Weather Stations






























Interactive Weather Map
Tropical Storm Tracking
New forecast layout! Learn more

10-Day Weather Forecast

Advertisements
Track Severe Weather on mobile